createdAt,value
2022-07-29T00:01:54.475Z,7.10
2022-07-29T00:04:23.412Z,8.20
2022-07-29T00:06:52.398Z,6.50
2022-07-29T00:09:21.275Z,6.80
2022-07-29T00:11:50.353Z,7.30
2022-07-29T00:14:19.364Z,6.60
2022-07-29T00:16:48.389Z,7.10
2022-07-29T00:19:17.339Z,7.80
2022-07-29T00:21:46.132Z,7.50
2022-07-29T00:24:15.419Z,8.10
2022-07-29T00:26:44.516Z,8.50
2022-07-29T00:32:02.436Z,7.40
2022-07-29T00:34:49.522Z,7.70
2022-07-29T00:37:18.590Z,7.20
2022-07-29T00:39:47.417Z,8.00
2022-07-29T00:42:16.940Z,7.50
2022-07-29T00:44:45.826Z,7.20
2022-07-29T00:47:14.893Z,8.20
2022-07-29T00:49:44.092Z,7.60
2022-07-29T00:52:13.782Z,8.40
2022-07-29T00:54:46.466Z,8.50
2022-07-29T00:57:15.516Z,7.30
2022-07-29T00:59:44.349Z,7.80
2022-07-29T01:02:13.422Z,8.60
2022-07-29T01:04:42.706Z,8.50
2022-07-29T01:07:12.481Z,9.00
2022-07-29T01:09:46.058Z,8.20
2022-07-29T01:12:19.427Z,9.10
2022-07-29T01:14:50.219Z,7.60
2022-07-29T01:17:25.244Z,8.50
2022-07-29T01:20:01.703Z,9.30
2022-07-29T01:22:50.260Z,9.00
2022-07-29T01:25:56.289Z,8.10
2022-07-29T01:28:46.721Z,8.20
2022-07-29T01:31:24.980Z,8.50
2022-07-29T01:34:02.422Z,7.30
2022-07-29T01:36:36.107Z,8.70
2022-07-29T01:39:13.311Z,10.60
2022-07-29T01:41:49.364Z,8.00
2022-07-29T01:44:27.842Z,8.00
2022-07-29T01:47:02.762Z,8.50
2022-07-29T01:49:36.625Z,7.70
2022-07-29T01:52:12.128Z,8.80
2022-07-29T01:54:46.662Z,9.20
2022-07-29T01:57:18.161Z,9.40
2022-07-29T01:59:48.328Z,9.90
2022-07-29T02:02:19.267Z,8.40
2022-07-29T02:04:50.679Z,8.10
2022-07-29T02:07:23.352Z,8.10
2022-07-29T02:09:54.685Z,9.20
2022-07-29T02:12:25.073Z,7.40
2022-07-29T02:14:55.861Z,8.80
2022-07-29T02:17:28.911Z,9.80
2022-07-29T02:20:01.307Z,8.30
2022-07-29T02:22:32.244Z,8.40
2022-07-29T02:25:02.067Z,8.20
2022-07-29T02:27:34.968Z,9.40
2022-07-29T02:30:06.806Z,8.70
2022-07-29T02:32:38.452Z,10.10
2022-07-29T02:35:10.817Z,9.70
2022-07-29T02:37:40.858Z,9.10
2022-07-29T02:40:14.813Z,8.10
2022-07-29T02:42:47.552Z,8.20
2022-07-29T02:45:16.484Z,8.80
2022-07-29T02:47:49.537Z,8.70
2022-07-29T02:50:24.660Z,8.40
2022-07-29T02:52:58.675Z,7.40
2022-07-29T02:55:32.981Z,8.20
2022-07-29T02:58:04.432Z,8.00
2022-07-29T03:00:37.722Z,7.50
2022-07-29T03:03:11.929Z,8.10
2022-07-29T03:05:41.551Z,8.60
2022-07-29T03:08:13.816Z,7.90
2022-07-29T03:10:46.190Z,9.30
2022-07-29T03:13:15.808Z,8.00
2022-07-29T03:15:46.617Z,7.40
2022-07-29T03:18:15.692Z,8.30
2022-07-29T03:20:44.811Z,6.80
2022-07-29T03:23:19.132Z,7.60
2022-07-29T03:25:48.550Z,9.00
2022-07-29T03:28:17.583Z,7.60
2022-07-29T03:30:48.157Z,7.60
2022-07-29T03:33:17.408Z,8.00
2022-07-29T03:35:46.363Z,7.90
2022-07-29T03:38:15.241Z,7.90
2022-07-29T03:40:49.573Z,7.30
2022-07-29T03:43:20.421Z,8.20
2022-07-29T03:45:53.917Z,7.40
2022-07-29T03:48:25.369Z,10.40
2022-07-29T03:50:54.672Z,8.50
2022-07-29T03:53:23.749Z,8.80
2022-07-29T03:56:00.125Z,10.40
2022-07-29T03:58:31.360Z,8.20
2022-07-29T04:01:01.499Z,9.10
2022-07-29T04:03:30.712Z,9.30
2022-07-29T04:06:06.148Z,9.50
2022-07-29T04:11:03.943Z,6.60
2022-07-29T04:13:33.320Z,8.80
2022-07-29T04:16:02.344Z,6.70
2022-07-29T04:18:31.510Z,8.30
2022-07-29T04:21:01.313Z,8.20
2022-07-29T04:23:33.997Z,8.50
2022-07-29T04:26:02.788Z,10.50
2022-07-29T04:28:31.573Z,8.40
2022-07-29T04:31:00.637Z,8.80
2022-07-29T04:33:29.575Z,8.70
2022-07-29T04:35:58.483Z,9.70
2022-07-29T04:38:27.930Z,8.10
2022-07-29T04:40:56.787Z,8.70
2022-07-29T04:43:25.658Z,7.80
2022-07-29T04:45:55.998Z,8.20
2022-07-29T04:48:28.652Z,7.70
2022-07-29T04:50:58.040Z,8.80
2022-07-29T04:53:27.428Z,7.90
2022-07-29T04:55:56.248Z,8.20
2022-07-29T04:58:25.260Z,8.90
2022-07-29T05:00:54.129Z,9.40
2022-07-29T05:03:22.952Z,7.00
2022-07-29T05:05:51.781Z,8.00
2022-07-29T05:08:20.758Z,7.70
2022-07-29T05:10:49.612Z,7.90
2022-07-29T05:13:18.549Z,7.40
2022-07-29T05:15:47.447Z,7.70
2022-07-29T05:18:16.476Z,7.90
2022-07-29T05:20:45.352Z,9.50
2022-07-29T05:23:15.145Z,8.00
2022-07-29T05:25:44.955Z,9.50
2022-07-29T05:28:14.220Z,7.90
2022-07-29T05:30:44.788Z,7.40
2022-07-29T05:33:36.134Z,9.60
2022-07-29T05:36:02.409Z,14.30
2022-07-29T05:38:31.477Z,9.40
2022-07-29T05:41:00.869Z,7.60
2022-07-29T05:43:30.728Z,8.00
2022-07-29T05:45:59.717Z,7.80
2022-07-29T05:48:28.700Z,7.80
2022-07-29T05:50:57.545Z,6.10
2022-07-29T05:53:26.323Z,8.40
2022-07-29T05:55:55.497Z,9.20
2022-07-29T05:58:24.474Z,7.10
2022-07-29T06:00:53.727Z,8.30
2022-07-29T06:03:22.523Z,9.50
2022-07-29T06:05:51.424Z,8.00
2022-07-29T06:08:20.607Z,8.00
2022-07-29T06:10:49.399Z,8.20
2022-07-29T06:13:18.273Z,7.50
2022-07-29T06:15:47.232Z,8.20
2022-07-29T06:18:16.046Z,6.50
2022-07-29T06:20:44.859Z,6.80
2022-07-29T06:23:13.644Z,6.30
2022-07-29T06:25:42.925Z,8.00
2022-07-29T06:28:11.870Z,8.70
2022-07-29T06:30:41.407Z,8.20
2022-07-29T06:33:10.383Z,7.40
2022-07-29T06:35:41.897Z,6.10
2022-07-29T06:38:31.685Z,8.50
2022-07-29T06:41:02.688Z,6.90
2022-07-29T06:43:35.286Z,5.40
2022-07-29T06:46:20.994Z,6.20
2022-07-29T06:48:50.247Z,6.10
2022-07-29T06:51:21.773Z,5.60
2022-07-29T06:53:58.200Z,5.90
2022-07-29T06:56:29.941Z,6.60
2022-07-29T06:58:59.193Z,5.60
2022-07-29T07:01:30.581Z,7.30
2022-07-29T07:03:59.595Z,6.10
2022-07-29T07:06:28.601Z,5.70
2022-07-29T07:08:57.700Z,5.90
2022-07-29T07:11:26.761Z,6.50
2022-07-29T07:14:00.657Z,7.00
2022-07-29T07:16:32.658Z,6.30
2022-07-29T07:19:02.043Z,5.40
2022-07-29T07:21:31.511Z,5.80
2022-07-29T07:24:00.918Z,6.30
2022-07-29T07:26:30.145Z,5.30
2022-07-29T07:29:00.739Z,5.90
2022-07-29T07:31:29.670Z,5.70
2022-07-29T07:33:58.654Z,6.20
2022-07-29T07:36:27.712Z,5.40
2022-07-29T07:38:56.716Z,5.20
2022-07-29T07:41:25.539Z,4.80
2022-07-29T07:43:54.364Z,5.60
2022-07-29T07:46:23.310Z,6.00
2022-07-29T07:48:52.698Z,6.00
2022-07-29T07:51:21.638Z,4.50
2022-07-29T07:53:50.797Z,5.50
2022-07-29T07:56:20.040Z,5.50
2022-07-29T07:58:48.974Z,4.20
2022-07-29T08:01:19.437Z,4.40
2022-07-29T08:03:48.692Z,4.30
2022-07-29T08:06:17.979Z,3.90
2022-07-29T08:08:46.848Z,5.00
2022-07-29T08:11:15.772Z,4.60
2022-07-29T08:13:45.012Z,5.70
2022-07-29T08:16:15.474Z,5.40
2022-07-29T08:18:45.700Z,4.80
2022-07-29T08:21:15.839Z,4.50
2022-07-29T08:23:54.341Z,5.10
2022-07-29T08:26:27.901Z,4.70
2022-07-29T08:28:56.805Z,5.50
2022-07-29T08:31:25.814Z,5.00
2022-07-29T08:33:56.594Z,5.00
2022-07-29T08:36:25.437Z,4.50
2022-07-29T08:38:54.349Z,4.40
2022-07-29T08:41:23.543Z,4.20
2022-07-29T08:43:52.776Z,3.80
2022-07-29T08:46:22.608Z,4.20
2022-07-29T08:48:51.683Z,5.30
2022-07-29T08:51:22.113Z,4.70
2022-07-29T08:53:51.725Z,5.50
2022-07-29T08:56:21.325Z,4.40
2022-07-29T08:58:51.897Z,4.10
2022-07-29T09:01:35.688Z,4.40
2022-07-29T09:04:10.945Z,4.40
2022-07-29T09:06:44.850Z,5.10
2022-07-29T09:09:14.592Z,4.60
2022-07-29T09:11:44.156Z,4.60
2022-07-29T09:14:14.472Z,3.60
2022-07-29T09:17:01.041Z,3.40
2022-07-29T09:19:32.187Z,4.00
2022-07-29T09:22:03.503Z,4.00
2022-07-29T09:24:41.388Z,4.50
2022-07-29T09:27:18.680Z,4.90
2022-07-29T09:29:47.730Z,4.10
2022-07-29T09:32:16.558Z,4.30
2022-07-29T09:34:45.505Z,4.70
2022-07-29T09:37:28.208Z,4.70
2022-07-29T09:39:57.037Z,5.00
2022-07-29T09:42:34.235Z,4.10
2022-07-29T09:45:03.661Z,4.90
2022-07-29T09:47:46.109Z,5.20
2022-07-29T09:50:15.634Z,5.30
2022-07-29T09:52:49.577Z,5.80
2022-07-29T09:55:19.773Z,4.00
2022-07-29T09:57:49.263Z,4.60
2022-07-29T10:00:20.005Z,4.90
2022-07-29T10:02:49.506Z,3.80
2022-07-29T10:05:23.141Z,2.90
2022-07-29T10:07:55.231Z,4.00
2022-07-29T10:10:28.354Z,4.20
2022-07-29T10:13:01.848Z,3.50
2022-07-29T10:15:38.964Z,3.40
2022-07-29T10:18:08.770Z,4.20
2022-07-29T10:20:38.394Z,3.80
2022-07-29T10:23:07.504Z,4.90
2022-07-29T10:25:36.414Z,3.80
2022-07-29T10:28:08.023Z,3.80
2022-07-29T10:30:40.383Z,4.40
2022-07-29T10:33:31.827Z,4.50
2022-07-29T10:36:16.880Z,4.40
2022-07-29T10:38:54.825Z,5.20
2022-07-29T10:41:54.030Z,4.90
2022-07-29T10:44:25.952Z,4.50
2022-07-29T10:46:57.666Z,3.90
2022-07-29T10:49:27.931Z,4.50
2022-07-29T10:52:03.465Z,3.80
2022-07-29T10:54:50.585Z,4.30
2022-07-29T10:57:54.242Z,4.70
2022-07-29T11:00:33.344Z,4.30
2022-07-29T11:03:04.509Z,3.90
2022-07-29T11:06:08.755Z,3.90
2022-07-29T11:08:38.500Z,4.10
2022-07-29T11:11:41.399Z,4.00
2022-07-29T11:14:13.193Z,3.80
2022-07-29T11:17:06.028Z,4.20
2022-07-29T11:19:36.717Z,4.20
2022-07-29T11:22:11.276Z,4.70
2022-07-29T11:24:50.163Z,5.10
2022-07-29T11:27:22.449Z,5.10
2022-07-29T11:29:54.380Z,3.60
2022-07-29T11:32:25.359Z,4.50
2022-07-29T11:35:37.200Z,4.30
2022-07-29T11:38:28.095Z,3.90
2022-07-29T11:41:22.363Z,3.80
2022-07-29T11:43:53.900Z,3.60
2022-07-29T11:46:46.047Z,4.10
2022-07-29T11:49:22.105Z,4.10
2022-07-29T11:52:03.356Z,4.30
2022-07-29T11:54:52.356Z,3.20
2022-07-29T11:57:36.062Z,3.90
2022-07-29T12:03:00.588Z,4.10
2022-07-29T12:05:39.064Z,3.70
2022-07-29T12:07:02.431Z,4.50
2022-07-29T12:08:20.027Z,4.60
2022-07-29T12:10:51.065Z,4.00
2022-07-29T12:13:21.448Z,4.40
2022-07-29T12:15:55.702Z,4.40
2022-07-29T12:18:28.752Z,4.60
2022-07-29T12:21:04.063Z,4.90
2022-07-29T12:23:34.350Z,3.70
2022-07-29T12:26:07.710Z,3.50
2022-07-29T12:28:40.190Z,3.60
2022-07-29T12:31:42.039Z,4.20
2022-07-29T12:34:04.687Z,4.20
2022-07-29T12:36:34.281Z,3.90
2022-07-29T12:39:04.114Z,3.60
2022-07-29T12:41:33.279Z,3.90
2022-07-29T12:44:02.600Z,3.70
2022-07-29T12:46:31.913Z,4.00
2022-07-29T12:49:01.005Z,3.90
2022-07-29T12:51:35.299Z,3.30
2022-07-29T12:54:07.716Z,3.60
2022-07-29T12:56:45.296Z,3.90
2022-07-29T12:59:17.235Z,4.30
2022-07-29T13:01:48.379Z,4.30
2022-07-29T13:04:27.778Z,5.30
2022-07-29T13:07:07.597Z,4.10
2022-07-29T13:09:40.881Z,3.80
2022-07-29T13:12:11.456Z,3.30
2022-07-29T13:14:42.036Z,4.20
2022-07-29T13:17:12.772Z,4.00
2022-07-29T13:19:43.390Z,4.10
2022-07-29T13:22:13.889Z,3.30
2022-07-29T13:24:50.936Z,4.40
2022-07-29T13:27:21.844Z,4.60
2022-07-29T13:29:52.804Z,3.90
2022-07-29T13:32:28.384Z,3.80
2022-07-29T13:34:58.347Z,5.40
2022-07-29T13:37:29.900Z,3.20
2022-07-29T13:39:59.536Z,4.40
2022-07-29T13:42:28.466Z,4.20
2022-07-29T13:44:57.341Z,4.60
2022-07-29T13:47:32.342Z,4.30
2022-07-29T13:50:02.242Z,4.50
2022-07-29T13:52:31.595Z,4.10
2022-07-29T13:55:00.768Z,4.20
2022-07-29T13:57:30.275Z,4.00
2022-07-29T13:59:59.820Z,4.00
2022-07-29T14:02:28.636Z,4.20
2022-07-29T14:04:57.525Z,3.90
2022-07-29T14:07:26.412Z,4.40
2022-07-29T14:09:55.200Z,4.30
2022-07-29T14:12:24.135Z,3.40
2022-07-29T14:14:52.917Z,4.20
2022-07-29T14:17:22.222Z,4.10
2022-07-29T14:19:51.116Z,4.70
2022-07-29T14:22:19.915Z,4.10
2022-07-29T14:24:52.640Z,4.20
2022-07-29T14:27:37.358Z,4.20
2022-07-29T14:30:10.961Z,3.60
2022-07-29T14:32:39.919Z,4.00
2022-07-29T14:35:10.542Z,3.40
2022-07-29T14:37:40.632Z,3.90
2022-07-29T14:40:11.732Z,4.50
2022-07-29T14:42:41.079Z,3.80
2022-07-29T14:45:11.091Z,4.00
2022-07-29T14:47:40.227Z,4.70
2022-07-29T14:50:10.650Z,5.80
2022-07-29T14:52:39.485Z,5.00
2022-07-29T14:55:16.436Z,4.60
2022-07-29T14:57:50.365Z,3.70
2022-07-29T15:00:21.139Z,4.20
2022-07-29T15:03:01.948Z,4.20
2022-07-29T15:05:32.115Z,3.80
2022-07-29T15:08:01.459Z,3.80
2022-07-29T15:10:30.547Z,4.60
2022-07-29T15:12:59.507Z,3.40
2022-07-29T15:15:28.300Z,5.00
2022-07-29T15:17:57.269Z,3.70
2022-07-29T15:20:27.546Z,4.80
2022-07-29T15:22:56.853Z,3.70
2022-07-29T15:25:27.985Z,3.90
2022-07-29T15:28:01.083Z,3.50
2022-07-29T15:30:33.565Z,4.10
2022-07-29T15:33:04.551Z,3.40
2022-07-29T15:35:40.399Z,4.60
2022-07-29T15:38:09.849Z,4.10
2022-07-29T15:40:40.615Z,4.10
2022-07-29T15:43:10.349Z,4.20
2022-07-29T15:45:40.886Z,3.70
2022-07-29T15:48:14.676Z,4.50
2022-07-29T15:50:47.099Z,3.40
2022-07-29T15:53:16.568Z,5.00
2022-07-29T15:55:46.527Z,4.10
2022-07-29T15:58:15.375Z,3.70
2022-07-29T16:00:44.269Z,4.40
2022-07-29T16:03:13.269Z,3.80
2022-07-29T16:05:42.217Z,5.20
2022-07-29T16:08:11.138Z,4.20
2022-07-29T16:10:40.558Z,3.60
2022-07-29T16:13:09.372Z,3.50
2022-07-29T16:15:37.810Z,4.40
2022-07-29T16:18:08.368Z,3.70
2022-07-29T16:20:38.401Z,3.80
2022-07-29T16:23:08.915Z,3.90
2022-07-29T16:25:58.587Z,3.90
2022-07-29T16:28:27.175Z,5.50
2022-07-29T16:30:56.663Z,4.30
2022-07-29T16:33:25.796Z,3.90
2022-07-29T16:35:54.683Z,3.90
2022-07-29T16:38:23.639Z,4.90
2022-07-29T16:40:52.577Z,4.20
2022-07-29T16:43:21.502Z,4.40
2022-07-29T16:45:50.549Z,5.00
2022-07-29T16:48:19.399Z,5.50
2022-07-29T16:50:48.238Z,4.40
2022-07-29T16:53:17.321Z,6.10
2022-07-29T16:55:46.120Z,5.40
2022-07-29T16:58:14.942Z,5.40
2022-07-29T17:00:43.935Z,5.00
2022-07-29T17:03:13.574Z,5.90
2022-07-29T17:05:52.038Z,4.70
2022-07-29T17:08:23.813Z,5.30
2022-07-29T17:10:52.623Z,6.00
2022-07-29T17:13:21.656Z,5.00
2022-07-29T17:15:50.664Z,5.00
2022-07-29T17:18:19.515Z,6.30
2022-07-29T17:20:48.397Z,6.60
2022-07-29T17:23:17.292Z,4.80
2022-07-29T17:25:46.068Z,5.90
2022-07-29T17:28:14.863Z,5.50
2022-07-29T17:30:43.652Z,5.80
2022-07-29T17:33:12.495Z,5.70
2022-07-29T17:35:59.572Z,5.60
2022-07-29T17:38:28.405Z,5.80
2022-07-29T17:40:57.433Z,6.70
2022-07-29T17:43:26.352Z,7.50
2022-07-29T17:45:59.235Z,5.60
2022-07-29T17:48:28.587Z,7.90
2022-07-29T17:50:57.817Z,6.20
2022-07-29T17:53:26.757Z,8.00
2022-07-29T17:55:57.572Z,5.40
2022-07-29T17:58:26.836Z,6.90
2022-07-29T18:00:55.724Z,6.50
2022-07-29T18:03:25.188Z,6.50
2022-07-29T18:05:54.599Z,6.90
2022-07-29T18:08:23.573Z,7.50
2022-07-29T18:10:52.935Z,7.20
2022-07-29T18:13:21.801Z,7.10
2022-07-29T18:15:50.680Z,6.80
2022-07-29T18:18:19.524Z,6.40
2022-07-29T18:20:48.557Z,8.90
2022-07-29T18:23:17.355Z,6.70
2022-07-29T18:25:46.219Z,5.30
2022-07-29T18:28:15.063Z,6.30
2022-07-29T18:30:44.531Z,5.90
2022-07-29T18:33:21.202Z,6.30
2022-07-29T18:35:52.423Z,7.50
2022-07-29T18:38:40.183Z,6.40
2022-07-29T18:41:09.034Z,7.10
2022-07-29T18:43:37.868Z,6.40
2022-07-29T18:46:06.873Z,5.60
2022-07-29T18:48:36.093Z,6.40
2022-07-29T18:51:09.263Z,6.30
2022-07-29T18:53:38.515Z,6.20
2022-07-29T18:56:07.371Z,6.90
2022-07-29T18:58:38.336Z,5.60
2022-07-29T19:01:07.302Z,6.10
2022-07-29T19:03:36.111Z,7.20
2022-07-29T19:06:05.320Z,6.10
2022-07-29T19:08:36.575Z,6.70
2022-07-29T19:11:05.368Z,7.00
2022-07-29T19:13:36.390Z,7.00
2022-07-29T19:16:06.170Z,6.20
2022-07-29T19:18:35.175Z,8.20
2022-07-29T19:21:04.065Z,6.10
2022-07-29T19:24:03.836Z,6.00
2022-07-29T19:26:22.107Z,6.60
2022-07-29T19:28:50.911Z,7.00
2022-07-29T19:31:19.739Z,5.80
2022-07-29T19:33:48.640Z,7.20
2022-07-29T19:36:17.487Z,6.70
2022-07-29T19:38:46.274Z,5.90
2022-07-29T19:41:16.432Z,5.80
2022-07-29T19:43:51.058Z,6.60
2022-07-29T19:46:22.192Z,6.40
2022-07-29T19:48:52.312Z,5.60
2022-07-29T19:51:21.903Z,6.80
2022-07-29T19:53:51.014Z,7.00
2022-07-29T19:56:19.812Z,6.90
2022-07-29T19:58:48.649Z,7.00
2022-07-29T20:01:17.629Z,6.60
2022-07-29T20:03:46.444Z,6.20
2022-07-29T20:06:15.275Z,6.90
2022-07-29T20:08:44.653Z,6.90
2022-07-29T20:11:13.455Z,7.20
2022-07-29T20:13:42.235Z,6.00
2022-07-29T20:16:11.060Z,6.30
2022-07-29T20:18:39.931Z,6.70
2022-07-29T20:21:08.728Z,7.70
2022-07-29T20:23:37.586Z,7.00
2022-07-29T20:26:09.432Z,6.70
2022-07-29T20:28:39.659Z,6.30
2022-07-29T20:31:08.544Z,6.30
2022-07-29T20:33:37.496Z,6.60
2022-07-29T20:36:06.984Z,6.70
2022-07-29T20:38:35.829Z,7.10
2022-07-29T20:41:04.791Z,6.30
2022-07-29T20:43:38.939Z,6.90
2022-07-29T20:46:08.137Z,6.40
2022-07-29T20:48:39.118Z,6.90
2022-07-29T20:51:08.514Z,7.10
2022-07-29T20:53:39.759Z,6.50
2022-07-29T20:56:08.668Z,5.70
2022-07-29T20:58:37.660Z,6.50
2022-07-29T21:01:07.084Z,6.70
2022-07-29T21:03:36.471Z,7.30
2022-07-29T21:06:05.627Z,7.50
2022-07-29T21:08:34.729Z,6.90
2022-07-29T21:11:03.794Z,6.90
2022-07-29T21:13:37.323Z,7.90
2022-07-29T21:16:12.483Z,7.10
2022-07-29T21:18:45.949Z,6.50
2022-07-29T21:21:16.062Z,7.40
2022-07-29T21:23:45.899Z,6.50
2022-07-29T21:26:15.401Z,9.60
2022-07-29T21:28:44.160Z,7.80
2022-07-29T21:31:16.072Z,8.00
2022-07-29T21:33:47.060Z,6.70
2022-07-29T21:39:06.703Z,8.70
2022-07-29T21:41:36.396Z,7.20
2022-07-29T21:44:05.416Z,9.10
2022-07-29T21:46:35.987Z,8.40
2022-07-29T21:49:05.096Z,7.00
2022-07-29T21:51:33.951Z,6.50
2022-07-29T21:54:03.946Z,7.40
2022-07-29T21:56:32.734Z,7.20
2022-07-29T21:59:01.501Z,8.20
2022-07-29T22:01:38.842Z,7.80
2022-07-29T22:04:08.846Z,8.00
2022-07-29T22:06:37.764Z,7.30
2022-07-29T22:09:06.613Z,8.80
2022-07-29T22:11:36.169Z,7.20
2022-07-29T22:14:05.123Z,8.30
2022-07-29T22:16:34.009Z,8.10
2022-07-29T22:19:03.581Z,6.60
2022-07-29T22:21:32.452Z,6.50
2022-07-29T22:24:02.336Z,8.20
2022-07-29T22:26:31.208Z,6.70
2022-07-29T22:29:00.060Z,7.10
2022-07-29T22:31:28.953Z,6.50
2022-07-29T22:33:57.778Z,7.70
2022-07-29T22:36:27.166Z,7.80
2022-07-29T22:38:55.946Z,7.60
2022-07-29T22:41:24.715Z,7.90
2022-07-29T22:43:53.611Z,6.80
2022-07-29T22:46:22.697Z,6.20
2022-07-29T22:48:51.599Z,6.40
2022-07-29T22:51:20.549Z,6.90
2022-07-29T22:53:49.489Z,6.30
2022-07-29T22:56:19.060Z,6.50
2022-07-29T22:58:48.596Z,6.50
2022-07-29T23:01:17.896Z,6.50
2022-07-29T23:04:07.423Z,7.00
2022-07-29T23:06:36.289Z,6.80
2022-07-29T23:09:05.252Z,7.20
2022-07-29T23:11:34.111Z,8.00
2022-07-29T23:14:03.092Z,6.50
2022-07-29T23:16:31.985Z,6.10
2022-07-29T23:19:01.768Z,6.80
2022-07-29T23:21:30.585Z,6.40
2022-07-29T23:23:59.476Z,6.00
2022-07-29T23:26:28.312Z,6.10
2022-07-29T23:28:57.217Z,6.60
2022-07-29T23:31:26.121Z,7.00
2022-07-29T23:33:54.960Z,6.50
2022-07-29T23:36:23.898Z,6.90
2022-07-29T23:38:54.405Z,6.80
2022-07-29T23:41:23.659Z,6.20
2022-07-29T23:43:52.540Z,6.50
2022-07-29T23:46:23.859Z,4.80
2022-07-29T23:48:53.162Z,6.00
2022-07-29T23:51:22.175Z,5.80
2022-07-29T23:53:53.274Z,6.10
2022-07-29T23:56:23.212Z,6.40
2022-07-29T23:58:52.203Z,7.20
